createdAt,value
2023-02-12T06:55:35.555Z,4.82
2023-02-12T06:58:54.014Z,4.83
2023-02-12T07:01:25.485Z,4.84
2023-02-12T07:03:55.214Z,4.81
2023-02-12T07:06:23.855Z,4.76
2023-02-12T07:08:51.890Z,4.80
2023-02-12T07:11:19.753Z,4.87
2023-02-12T07:13:48.763Z,4.94
2023-02-12T07:17:25.776Z,5.00
2023-02-12T07:19:56.279Z,5.06
2023-02-12T07:22:24.278Z,5.10
2023-02-12T07:24:52.200Z,5.13
2023-02-12T07:27:19.908Z,5.17
2023-02-12T07:29:49.484Z,5.20
2023-02-12T07:32:17.251Z,5.23
2023-02-12T07:34:45.108Z,5.20
2023-02-12T07:37:12.881Z,5.20
2023-02-12T07:39:42.047Z,5.23
2023-02-12T07:42:22.105Z,5.25
2023-02-12T07:44:53.414Z,5.27
2023-02-12T07:47:21.576Z,5.27
2023-02-12T07:52:32.340Z,5.29
2023-02-12T07:55:00.186Z,5.32
2023-02-12T07:57:27.932Z,5.35
2023-02-12T07:59:57.338Z,5.39
2023-02-12T08:02:25.988Z,5.45
2023-02-12T08:04:57.010Z,5.45
2023-02-12T08:07:25.411Z,5.48
2023-02-12T08:09:53.525Z,5.50
2023-02-12T08:12:21.385Z,5.54
2023-02-12T08:14:49.054Z,5.55
2023-02-12T08:17:18.242Z,5.57
2023-02-12T08:19:46.772Z,5.58
2023-02-12T08:22:14.702Z,5.60
2023-02-12T08:24:43.411Z,5.59
2023-02-12T08:27:11.419Z,5.59
2023-02-12T08:29:41.110Z,5.60
2023-02-12T08:32:13.858Z,5.63
2023-02-12T08:34:43.190Z,5.63
2023-02-12T08:37:11.016Z,5.64
2023-02-12T08:39:40.335Z,5.66
2023-02-12T08:42:08.177Z,5.72
2023-02-12T08:44:36.929Z,5.74
2023-02-12T08:47:06.740Z,5.75
2023-02-12T08:49:34.584Z,5.82
2023-02-12T08:52:03.840Z,5.83
2023-02-12T08:54:32.744Z,5.84
2023-02-12T08:57:02.208Z,5.87
2023-02-12T08:59:31.345Z,5.96
2023-02-12T09:01:59.434Z,5.92
2023-02-12T09:04:29.433Z,5.96
2023-02-12T09:06:57.295Z,5.97
2023-02-12T09:09:26.364Z,5.99
2023-02-12T09:11:54.340Z,6.04
2023-02-12T09:14:25.202Z,6.04
2023-02-12T09:16:54.835Z,6.11
2023-02-12T09:19:22.707Z,6.07
2023-02-12T09:21:55.577Z,6.11
2023-02-12T09:24:24.431Z,6.15
2023-02-12T09:26:53.574Z,6.20
2023-02-12T09:29:21.520Z,6.29
2023-02-12T09:31:49.308Z,6.28
2023-02-12T09:34:17.242Z,6.28
2023-02-12T09:36:45.009Z,6.32
2023-02-12T09:39:12.922Z,6.35
2023-02-12T09:42:13.938Z,6.39
2023-02-12T09:44:48.564Z,6.47
2023-02-12T09:47:22.421Z,6.46
2023-02-12T09:50:13.562Z,6.47
2023-02-12T09:52:42.776Z,6.59
2023-02-12T09:55:15.665Z,6.72
2023-02-12T09:57:46.346Z,6.67
2023-02-12T10:00:19.320Z,6.69
2023-02-12T10:02:47.844Z,6.63
2023-02-12T10:05:18.584Z,6.67
2023-02-12T10:08:07.536Z,6.68
2023-02-12T10:10:49.469Z,6.74
2023-02-12T10:13:32.636Z,6.83
2023-02-12T10:16:09.408Z,6.83
2023-02-12T10:18:54.654Z,6.87
2023-02-12T10:21:40.284Z,6.82
2023-02-12T10:24:34.796Z,6.81
2023-02-12T10:27:10.511Z,6.85
2023-02-12T10:29:44.267Z,6.87
2023-02-12T10:32:20.531Z,6.93
2023-02-12T10:34:50.597Z,6.91
2023-02-12T10:37:29.452Z,6.97
2023-02-12T10:40:02.773Z,7.01
2023-02-12T10:42:39.830Z,7.07
2023-02-12T10:45:15.172Z,7.13
2023-02-12T10:47:43.454Z,7.24
2023-02-12T10:50:26.896Z,7.30
2023-02-12T10:53:00.848Z,7.31
2023-02-12T10:55:30.920Z,7.38
2023-02-12T10:57:59.735Z,7.35
2023-02-12T11:00:32.573Z,7.45
2023-02-12T11:03:04.490Z,7.51
2023-02-12T11:05:35.946Z,7.63
2023-02-12T11:08:04.879Z,7.63
2023-02-12T11:10:37.438Z,7.66
2023-02-12T11:13:05.601Z,7.71
2023-02-12T11:15:38.849Z,7.78
2023-02-12T11:18:09.230Z,7.87
2023-02-12T11:20:41.264Z,7.91
2023-02-12T11:23:26.601Z,7.93
2023-02-12T11:26:00.815Z,7.96
2023-02-12T11:28:29.225Z,8.10
2023-02-12T11:31:01.334Z,8.01
2023-02-12T11:33:32.802Z,8.12
2023-02-12T11:36:07.032Z,8.24
2023-02-12T11:38:39.397Z,8.30
2023-02-12T11:41:24.865Z,8.34
2023-02-12T11:43:53.709Z,8.40
2023-02-12T11:46:25.012Z,8.39
2023-02-12T11:48:55.110Z,8.38
2023-02-12T11:51:31.036Z,8.46
2023-02-12T11:54:01.588Z,8.58
2023-02-12T11:56:43.025Z,8.62
2023-02-12T11:59:22.957Z,8.63
2023-02-12T12:01:55.798Z,8.73
2023-02-12T12:04:27.530Z,8.79
2023-02-12T12:07:01.365Z,8.89
2023-02-12T12:09:35.830Z,8.98
2023-02-12T12:12:13.534Z,8.92
2023-02-12T12:15:03.608Z,9.00
2023-02-12T12:18:00.384Z,9.09
2023-02-12T12:20:31.861Z,9.07
2023-02-12T12:23:04.661Z,8.98
2023-02-12T12:25:41.608Z,8.98
2023-02-12T12:28:29.008Z,9.10
2023-02-12T12:31:11.519Z,9.12
2023-02-12T12:33:45.599Z,9.20
2023-02-12T12:36:39.278Z,9.24
2023-02-12T12:39:19.516Z,9.36
2023-02-12T12:42:04.776Z,9.40
2023-02-12T12:44:49.034Z,9.42
2023-02-12T12:47:25.353Z,9.47
2023-02-12T12:50:06.097Z,9.53
2023-02-12T12:53:01.502Z,9.61
2023-02-12T12:56:08.834Z,9.65
2023-02-12T12:58:51.264Z,9.66
2023-02-12T13:01:49.957Z,9.54
2023-02-12T13:04:48.277Z,9.32
2023-02-12T13:07:41.071Z,9.32
2023-02-12T13:10:21.939Z,9.34
2023-02-12T13:13:11.508Z,9.27
2023-02-12T13:15:49.006Z,9.32
2023-02-12T13:18:33.014Z,9.43
2023-02-12T13:21:13.216Z,9.37
2023-02-12T13:23:54.603Z,9.34
2023-02-12T13:26:31.469Z,9.45
2023-02-12T13:29:08.061Z,9.56
2023-02-12T13:31:47.038Z,9.47
2023-02-12T13:34:19.162Z,9.42
2023-02-12T13:36:53.761Z,9.40
2023-02-12T13:39:39.519Z,9.26
2023-02-12T13:42:27.992Z,9.31
2023-02-12T13:45:07.555Z,9.42
2023-02-12T13:47:48.619Z,9.49
2023-02-12T13:50:44.550Z,9.48
2023-02-12T13:53:25.301Z,9.48
2023-02-12T13:56:10.972Z,9.51
2023-02-12T13:58:51.963Z,9.57
2023-02-12T14:02:05.368Z,9.68
2023-02-12T14:04:44.434Z,9.81
2023-02-12T14:07:16.021Z,9.77
2023-02-12T14:09:46.903Z,9.74
2023-02-12T14:12:18.883Z,9.69
2023-02-12T14:14:50.262Z,9.66
2023-02-12T14:17:55.937Z,9.53
2023-02-12T14:20:30.674Z,9.68
2023-02-12T14:23:03.472Z,9.71
2023-02-12T14:25:44.176Z,9.91
2023-02-12T14:28:26.158Z,9.82
2023-02-12T14:31:22.412Z,9.72
2023-02-12T14:33:52.721Z,9.54
2023-02-12T14:36:42.826Z,9.57
2023-02-12T14:39:30.636Z,9.55
2023-02-12T14:42:37.898Z,9.57
2023-02-12T14:45:29.028Z,9.54
2023-02-12T14:47:58.162Z,9.63
2023-02-12T14:50:42.966Z,10.00
2023-02-12T14:53:32.492Z,9.87
2023-02-12T14:56:02.482Z,9.77
2023-02-12T14:58:32.032Z,9.79
2023-02-12T15:01:04.226Z,9.80
2023-02-12T15:03:41.963Z,9.58
2023-02-12T15:06:17.180Z,9.44
2023-02-12T15:08:52.140Z,9.32
2023-02-12T15:11:36.787Z,9.04
2023-02-12T15:14:07.703Z,8.85
2023-02-12T15:16:50.981Z,8.77
2023-02-12T15:19:36.724Z,8.79
2023-02-12T15:22:05.162Z,8.74
2023-02-12T15:24:33.246Z,8.74
2023-02-12T15:27:02.099Z,8.68
2023-02-12T15:29:33.012Z,8.61
2023-02-12T15:32:05.907Z,8.56
2023-02-12T15:34:39.302Z,8.44
2023-02-12T15:37:09.660Z,8.33
2023-02-12T15:39:44.860Z,8.23
2023-02-12T15:42:32.405Z,8.13
2023-02-12T15:45:19.997Z,8.05
2023-02-12T15:48:01.346Z,8.00
2023-02-12T15:50:30.927Z,7.92
2023-02-12T15:53:00.117Z,7.88
2023-02-12T15:55:30.982Z,7.87
2023-02-12T15:58:01.973Z,7.81
2023-02-12T16:00:37.872Z,7.78
2023-02-12T16:03:07.265Z,7.68
2023-02-12T16:05:36.860Z,7.60
2023-02-12T16:08:07.082Z,7.54
2023-02-12T16:10:36.154Z,7.50
2023-02-12T16:13:05.104Z,7.47
2023-02-12T16:15:35.417Z,7.39
2023-02-12T16:18:08.720Z,7.29
2023-02-12T16:20:37.000Z,7.20
2023-02-12T16:23:08.268Z,7.14
2023-02-12T16:25:37.254Z,7.09
2023-02-12T16:28:08.354Z,7.04
2023-02-12T16:30:45.546Z,6.98
2023-02-12T16:33:36.793Z,6.90
2023-02-12T16:36:07.497Z,6.86
2023-02-12T16:38:46.688Z,6.82
2023-02-12T16:41:27.305Z,6.80
2023-02-12T16:44:29.602Z,6.78
2023-02-12T16:47:01.952Z,6.74
2023-02-12T16:49:33.160Z,6.73
2023-02-12T16:52:29.472Z,6.66
2023-02-12T16:54:57.610Z,6.65
2023-02-12T16:57:26.172Z,6.63
2023-02-12T16:59:54.241Z,6.61
2023-02-12T17:02:22.628Z,6.61
2023-02-12T17:04:52.197Z,6.72
2023-02-12T17:07:23.996Z,6.63
2023-02-12T17:09:52.343Z,6.58
2023-02-12T17:12:23.362Z,6.55
2023-02-12T17:14:51.915Z,6.58
2023-02-12T17:17:20.391Z,6.48
2023-02-12T17:19:48.979Z,6.43
2023-02-12T17:22:21.201Z,6.36
2023-02-12T17:24:51.737Z,6.35
2023-02-12T17:27:19.959Z,6.29
2023-02-12T17:29:48.084Z,6.26
2023-02-12T17:32:16.218Z,6.21
2023-02-12T17:34:48.894Z,6.25
2023-02-12T17:37:19.007Z,6.23
2023-02-12T17:39:46.960Z,6.17
2023-02-12T17:42:14.770Z,6.11
2023-02-12T17:44:43.237Z,6.14
2023-02-12T17:47:11.037Z,6.04
2023-02-12T17:49:40.124Z,6.01
2023-02-12T17:52:08.582Z,6.00
2023-02-12T17:54:38.572Z,6.04
2023-02-12T17:57:06.254Z,5.96
2023-02-12T17:59:34.104Z,5.91
2023-02-12T18:02:03.031Z,5.95
2023-02-12T18:04:33.867Z,5.88
2023-02-12T18:07:01.825Z,5.88
2023-02-12T18:09:29.655Z,5.87
2023-02-12T18:11:58.820Z,5.88
2023-02-12T18:14:26.823Z,5.84
2023-02-12T18:16:54.584Z,5.75
2023-02-12T18:19:22.934Z,5.75
2023-02-12T18:21:50.855Z,5.66
2023-02-12T18:24:18.837Z,5.63
2023-02-12T18:26:46.679Z,5.63
2023-02-12T18:29:15.820Z,5.65
2023-02-12T18:31:43.939Z,5.65
2023-02-12T18:34:11.909Z,5.47
2023-02-12T18:36:39.925Z,5.46
2023-02-12T18:39:07.846Z,5.37
2023-02-12T18:41:36.305Z,5.31
2023-02-12T18:44:05.591Z,5.30
2023-02-12T18:46:34.882Z,5.26
2023-02-12T18:49:03.092Z,5.29
2023-02-12T18:51:33.692Z,5.26
2023-02-12T18:54:05.260Z,5.26
2023-02-12T18:56:38.252Z,5.24
2023-02-12T18:59:07.721Z,5.26
2023-02-12T19:01:37.246Z,5.19
2023-02-12T19:04:08.834Z,5.23
2023-02-12T19:06:42.186Z,5.15
2023-02-12T19:09:10.712Z,5.07
2023-02-12T19:11:38.521Z,5.08
2023-02-12T19:14:07.743Z,5.05
2023-02-12T19:16:37.330Z,5.00
2023-02-12T19:19:05.624Z,5.02
2023-02-12T19:21:33.904Z,5.08
2023-02-12T19:24:03.620Z,5.08
2023-02-12T19:26:33.523Z,5.02
2023-02-12T19:29:03.003Z,5.05
2023-02-12T19:31:33.079Z,5.10
2023-02-12T19:34:05.059Z,5.15
2023-02-12T19:36:37.051Z,5.10
2023-02-12T19:39:08.995Z,5.08
2023-02-12T19:41:42.359Z,5.04
2023-02-12T19:44:13.505Z,4.99
2023-02-12T19:46:45.781Z,4.99
2023-02-12T19:49:18.149Z,4.95
2023-02-12T19:51:46.616Z,4.96
2023-02-12T19:54:16.997Z,5.01
2023-02-12T19:56:45.525Z,4.95
2023-02-12T19:59:17.174Z,4.92
2023-02-12T20:01:47.617Z,4.87
2023-02-12T20:04:20.106Z,4.83
2023-02-12T20:06:51.057Z,4.87
2023-02-12T20:09:20.346Z,4.79
2023-02-12T20:11:48.923Z,4.71
2023-02-12T20:14:17.877Z,4.75
2023-02-12T20:16:48.049Z,4.73
2023-02-12T20:19:19.999Z,4.71
2023-02-12T20:21:54.169Z,4.84
2023-02-12T20:24:23.378Z,4.70
2023-02-12T20:26:52.453Z,4.68
2023-02-12T20:29:20.785Z,4.66
2023-02-12T20:31:50.066Z,4.66
2023-02-12T20:34:22.257Z,4.66
2023-02-12T20:36:51.371Z,4.63
2023-02-12T20:39:21.452Z,4.64
2023-02-12T20:41:50.970Z,4.59
2023-02-12T20:44:21.460Z,4.59
2023-02-12T20:46:54.610Z,4.55
2023-02-12T20:49:27.489Z,4.54
2023-02-12T20:51:55.869Z,4.52
2023-02-12T20:54:24.019Z,4.54
2023-02-12T20:56:52.874Z,4.51
2023-02-12T20:59:21.265Z,4.53
2023-02-12T21:01:49.292Z,4.52
2023-02-12T21:04:20.565Z,4.52
2023-02-12T21:06:50.410Z,4.45
2023-02-12T21:09:18.889Z,4.44
2023-02-12T21:11:47.457Z,4.44
2023-02-12T21:14:22.373Z,4.43
2023-02-12T21:16:52.286Z,4.35
2023-02-12T21:19:22.119Z,4.36
2023-02-12T21:21:52.762Z,4.33
2023-02-12T21:24:22.704Z,4.31
2023-02-12T21:26:52.158Z,4.29
2023-02-12T21:29:21.134Z,4.25
2023-02-12T21:31:51.804Z,4.25
2023-02-12T21:34:22.711Z,4.27
2023-02-12T21:36:54.949Z,4.25
2023-02-12T21:39:27.550Z,4.22
2023-02-12T21:41:57.482Z,4.20
2023-02-12T21:44:27.185Z,4.21
2023-02-12T21:46:56.371Z,4.21
2023-02-12T21:49:29.019Z,4.20
2023-02-12T21:52:01.969Z,4.16
2023-02-12T21:54:32.069Z,4.15
2023-02-12T21:57:00.480Z,4.10
2023-02-12T21:59:30.791Z,4.14
2023-02-12T22:02:00.599Z,4.12
2023-02-12T22:04:28.650Z,4.11
2023-02-12T22:07:02.861Z,4.10
2023-02-12T22:09:30.644Z,4.11
2023-02-12T22:11:58.403Z,4.13
2023-02-12T22:14:26.359Z,4.10
2023-02-12T22:16:54.275Z,4.13
2023-02-12T22:19:22.111Z,4.07
2023-02-12T22:21:52.437Z,4.05
2023-02-12T22:24:22.095Z,4.02
2023-02-12T22:26:49.803Z,4.02
2023-02-12T22:29:18.037Z,4.10
2023-02-12T22:31:47.309Z,3.97
2023-02-12T22:34:17.495Z,3.92
2023-02-12T22:36:46.001Z,3.88
2023-02-12T22:39:15.328Z,3.85
2023-02-12T22:41:44.980Z,3.84
2023-02-12T22:44:14.478Z,3.87
2023-02-12T22:46:43.246Z,3.86
2023-02-12T22:49:11.985Z,3.87
2023-02-12T22:51:40.601Z,3.81
2023-02-12T22:54:12.192Z,3.79
2023-02-12T22:56:39.966Z,3.81
2023-02-12T22:59:11.123Z,3.83
2023-02-12T23:01:39.694Z,3.82
2023-02-12T23:04:07.784Z,3.76
2023-02-12T23:06:35.599Z,3.76
2023-02-12T23:09:05.355Z,3.77
2023-02-12T23:11:34.526Z,3.70
2023-02-12T23:14:02.391Z,3.71
2023-02-12T23:16:31.735Z,3.73
2023-02-12T23:19:02.008Z,3.75
2023-02-12T23:21:30.933Z,3.77
2023-02-12T23:24:00.252Z,3.76
2023-02-12T23:26:28.801Z,3.75
2023-02-12T23:28:57.305Z,3.73
2023-02-12T23:31:25.256Z,3.73
2023-02-12T23:33:54.856Z,3.70
2023-02-12T23:36:22.565Z,3.70
2023-02-12T23:38:50.285Z,3.68
2023-02-12T23:41:18.980Z,3.67
2023-02-12T23:43:46.762Z,3.67
2023-02-12T23:46:15.024Z,3.66
2023-02-12T23:48:44.485Z,3.65
2023-02-12T23:51:13.987Z,3.66
2023-02-12T23:53:41.995Z,3.61
2023-02-12T23:56:10.252Z,3.58
2023-02-12T23:58:38.436Z,3.56
